sensor_id;sensor_type;location;lat;lon;timestamp;temperature;humidity
63219;DHT22;49320;52.512;13.448;2024-03-25T00:00:10;9.80;83.70
63219;DHT22;49320;52.512;13.448;2024-03-25T00:02:38;9.80;83.70
63219;DHT22;49320;52.512;13.448;2024-03-25T00:05:05;9.90;83.90
63219;DHT22;49320;52.512;13.448;2024-03-25T00:07:32;9.80;84.30
63219;DHT22;49320;52.512;13.448;2024-03-25T00:09:58;9.80;84.30
63219;DHT22;49320;52.512;13.448;2024-03-25T00:12:28;9.80;83.90
63219;DHT22;49320;52.512;13.448;2024-03-25T00:14:55;9.70;84.20
63219;DHT22;49320;52.512;13.448;2024-03-25T00:17:20;9.70;83.80
63219;DHT22;49320;52.512;13.448;2024-03-25T00:19:46;9.70;83.70
63219;DHT22;49320;52.512;13.448;2024-03-25T00:22:20;9.50;83.70
63219;DHT22;49320;52.512;13.448;2024-03-25T00:24:47;9.70;84.10
63219;DHT22;49320;52.512;13.448;2024-03-25T00:27:14;9.60;83.80
63219;DHT22;49320;52.512;13.448;2024-03-25T00:29:41;9.60;84.00
63219;DHT22;49320;52.512;13.448;2024-03-25T00:32:07;9.60;84.00
63219;DHT22;49320;52.512;13.448;2024-03-25T00:34:33;9.60;84.30
63219;DHT22;49320;52.512;13.448;2024-03-25T00:37:00;9.60;84.50
63219;DHT22;49320;52.512;13.448;2024-03-25T00:39:27;9.50;85.00
63219;DHT22;49320;52.512;13.448;2024-03-25T00:41:53;9.50;85.00
63219;DHT22;49320;52.512;13.448;2024-03-25T00:44:19;9.50;85.00
63219;DHT22;49320;52.512;13.448;2024-03-25T00:46:45;9.50;84.80
63219;DHT22;49320;52.512;13.448;2024-03-25T00:49:12;9.50;84.80
63219;DHT22;49320;52.512;13.448;2024-03-25T00:51:38;9.50;85.00
63219;DHT22;49320;52.512;13.448;2024-03-25T00:54:04;9.50;84.80
63219;DHT22;49320;52.512;13.448;2024-03-25T00:56:31;9.50;84.80
63219;DHT22;49320;52.512;13.448;2024-03-25T00:58:57;9.50;84.80
63219;DHT22;49320;52.512;13.448;2024-03-25T01:01:28;9.50;84.70
63219;DHT22;49320;52.512;13.448;2024-03-25T01:03:55;9.50;85.00
63219;DHT22;49320;52.512;13.448;2024-03-25T01:06:21;9.50;84.70
63219;DHT22;49320;52.512;13.448;2024-03-25T01:08:47;9.50;84.60
63219;DHT22;49320;52.512;13.448;2024-03-25T01:11:13;9.50;84.70
63219;DHT22;49320;52.512;13.448;2024-03-25T01:13:38;9.50;84.50
63219;DHT22;49320;52.512;13.448;2024-03-25T01:18:33;9.50;83.90
63219;DHT22;49320;52.512;13.448;2024-03-25T01:21:00;9.50;84.50
63219;DHT22;49320;52.512;13.448;2024-03-25T01:23:26;9.50;84.60
63219;DHT22;49320;52.512;13.448;2024-03-25T01:25:52;9.50;84.60
63219;DHT22;49320;52.512;13.448;2024-03-25T01:28:18;9.50;84.60
63219;DHT22;49320;52.512;13.448;2024-03-25T01:30:44;9.50;84.80
63219;DHT22;49320;52.512;13.448;2024-03-25T01:33:10;9.50;84.80
63219;DHT22;49320;52.512;13.448;2024-03-25T01:35:36;9.50;84.70
63219;DHT22;49320;52.512;13.448;2024-03-25T01:38:02;9.50;84.80
63219;DHT22;49320;52.512;13.448;2024-03-25T01:40:29;9.50;85.00
63219;DHT22;49320;52.512;13.448;2024-03-25T01:42:56;9.50;84.50
63219;DHT22;49320;52.512;13.448;2024-03-25T01:45:25;9.50;85.30
63219;DHT22;49320;52.512;13.448;2024-03-25T01:47:59;9.50;85.00
63219;DHT22;49320;52.512;13.448;2024-03-25T01:50:29;9.60;85.20
63219;DHT22;49320;52.512;13.448;2024-03-25T01:55:27;9.60;84.30
63219;DHT22;49320;52.512;13.448;2024-03-25T01:57:54;9.60;85.10
63219;DHT22;49320;52.512;13.448;2024-03-25T02:00:21;9.60;85.20
63219;DHT22;49320;52.512;13.448;2024-03-25T02:02:50;9.60;85.40
63219;DHT22;49320;52.512;13.448;2024-03-25T02:05:17;9.60;85.30
63219;DHT22;49320;52.512;13.448;2024-03-25T02:07:44;9.60;85.30
63219;DHT22;49320;52.512;13.448;2024-03-25T02:10:11;9.60;85.20
63219;DHT22;49320;52.512;13.448;2024-03-25T02:12:44;9.70;84.70
63219;DHT22;49320;52.512;13.448;2024-03-25T02:15:12;9.60;83.60
63219;DHT22;49320;52.512;13.448;2024-03-25T02:17:41;9.60;83.90
63219;DHT22;49320;52.512;13.448;2024-03-25T02:20:08;9.70;83.30
63219;DHT22;49320;52.512;13.448;2024-03-25T02:22:36;9.50;83.40
63219;DHT22;49320;52.512;13.448;2024-03-25T02:25:06;9.50;83.20
63219;DHT22;49320;52.512;13.448;2024-03-25T02:27:34;9.50;83.10
63219;DHT22;49320;52.512;13.448;2024-03-25T02:30:03;9.50;83.10
63219;DHT22;49320;52.512;13.448;2024-03-25T02:32:38;9.40;82.80
63219;DHT22;49320;52.512;13.448;2024-03-25T02:35:07;9.40;84.20
63219;DHT22;49320;52.512;13.448;2024-03-25T02:37:39;9.40;83.80
63219;DHT22;49320;52.512;13.448;2024-03-25T02:40:08;9.40;84.10
63219;DHT22;49320;52.512;13.448;2024-03-25T02:42:38;9.40;84.00
63219;DHT22;49320;52.512;13.448;2024-03-25T02:45:06;9.40;84.30
63219;DHT22;49320;52.512;13.448;2024-03-25T02:47:32;9.40;84.30
63219;DHT22;49320;52.512;13.448;2024-03-25T02:49:58;9.30;84.30
63219;DHT22;49320;52.512;13.448;2024-03-25T02:52:24;9.30;84.80
63219;DHT22;49320;52.512;13.448;2024-03-25T02:54:50;9.30;84.90
63219;DHT22;49320;52.512;13.448;2024-03-25T02:57:16;9.30;85.00
63219;DHT22;49320;52.512;13.448;2024-03-25T02:59:42;9.30;84.70
63219;DHT22;49320;52.512;13.448;2024-03-25T03:02:08;9.30;84.70
63219;DHT22;49320;52.512;13.448;2024-03-25T03:04:34;9.20;85.10
63219;DHT22;49320;52.512;13.448;2024-03-25T03:07:00;9.20;84.80
63219;DHT22;49320;52.512;13.448;2024-03-25T03:09:25;9.10;84.60
63219;DHT22;49320;52.512;13.448;2024-03-25T03:11:51;9.10;84.50
63219;DHT22;49320;52.512;13.448;2024-03-25T03:14:17;9.10;84.30
63219;DHT22;49320;52.512;13.448;2024-03-25T03:16:43;9.10;84.40
63219;DHT22;49320;52.512;13.448;2024-03-25T03:19:09;9.00;84.70
63219;DHT22;49320;52.512;13.448;2024-03-25T03:21:35;9.00;85.00
63219;DHT22;49320;52.512;13.448;2024-03-25T03:24:04;9.00;84.80
63219;DHT22;49320;52.512;13.448;2024-03-25T03:26:30;9.00;85.80
63219;DHT22;49320;52.512;13.448;2024-03-25T03:28:57;9.00;86.10
63219;DHT22;49320;52.512;13.448;2024-03-25T03:31:23;8.90;86.90
63219;DHT22;49320;52.512;13.448;2024-03-25T03:33:49;8.90;86.50
63219;DHT22;49320;52.512;13.448;2024-03-25T03:36:17;9.00;86.90
63219;DHT22;49320;52.512;13.448;2024-03-25T03:38:44;9.00;87.20
63219;DHT22;49320;52.512;13.448;2024-03-25T03:41:10;9.00;87.20
63219;DHT22;49320;52.512;13.448;2024-03-25T03:43:36;9.00;87.10
63219;DHT22;49320;52.512;13.448;2024-03-25T03:46:02;9.00;87.30
63219;DHT22;49320;52.512;13.448;2024-03-25T03:48:29;9.00;87.20
63219;DHT22;49320;52.512;13.448;2024-03-25T03:50:56;9.00;87.20
63219;DHT22;49320;52.512;13.448;2024-03-25T03:53:22;9.10;87.20
63219;DHT22;49320;52.512;13.448;2024-03-25T03:55:55;7.30;86.20
63219;DHT22;49320;52.512;13.448;2024-03-25T03:58:23;9.00;87.60
63219;DHT22;49320;52.512;13.448;2024-03-25T04:00:50;9.10;87.30
63219;DHT22;49320;52.512;13.448;2024-03-25T04:03:16;9.10;87.60
63219;DHT22;49320;52.512;13.448;2024-03-25T04:05:43;9.10;87.20
63219;DHT22;49320;52.512;13.448;2024-03-25T04:08:08;8.20;86.60
63219;DHT22;49320;52.512;13.448;2024-03-25T04:10:35;8.90;86.90
63219;DHT22;49320;52.512;13.448;2024-03-25T04:13:02;9.10;87.00
63219;DHT22;49320;52.512;13.448;2024-03-25T04:15:29;9.10;86.90
63219;DHT22;49320;52.512;13.448;2024-03-25T04:17:58;9.10;87.10
63219;DHT22;49320;52.512;13.448;2024-03-25T04:20:24;9.10;87.00
63219;DHT22;49320;52.512;13.448;2024-03-25T04:22:50;9.10;87.00
63219;DHT22;49320;52.512;13.448;2024-03-25T04:25:16;9.20;86.90
63219;DHT22;49320;52.512;13.448;2024-03-25T04:27:44;9.10;87.00
63219;DHT22;49320;52.512;13.448;2024-03-25T04:30:11;9.00;86.90
63219;DHT22;49320;52.512;13.448;2024-03-25T04:32:38;9.00;86.90
63219;DHT22;49320;52.512;13.448;2024-03-25T04:35:06;9.00;87.00
63219;DHT22;49320;52.512;13.448;2024-03-25T04:37:33;9.00;87.10
63219;DHT22;49320;52.512;13.448;2024-03-25T04:39:59;9.10;87.00
63219;DHT22;49320;52.512;13.448;2024-03-25T04:42:26;9.10;87.10
63219;DHT22;49320;52.512;13.448;2024-03-25T04:44:52;9.00;87.20
63219;DHT22;49320;52.512;13.448;2024-03-25T04:47:20;9.10;87.20
63219;DHT22;49320;52.512;13.448;2024-03-25T04:49:46;9.00;87.20
63219;DHT22;49320;52.512;13.448;2024-03-25T04:54:39;9.10;86.90
63219;DHT22;49320;52.512;13.448;2024-03-25T04:57:05;9.00;87.60
63219;DHT22;49320;52.512;13.448;2024-03-25T04:59:32;9.00;87.90
63219;DHT22;49320;52.512;13.448;2024-03-25T05:01:59;9.00;88.00
63219;DHT22;49320;52.512;13.448;2024-03-25T05:04:25;9.00;88.20
63219;DHT22;49320;52.512;13.448;2024-03-25T05:06:51;9.00;88.00
63219;DHT22;49320;52.512;13.448;2024-03-25T05:09:17;9.10;88.30
63219;DHT22;49320;52.512;13.448;2024-03-25T05:11:43;9.10;88.30
63219;DHT22;49320;52.512;13.448;2024-03-25T05:14:09;9.00;88.10
63219;DHT22;49320;52.512;13.448;2024-03-25T05:16:35;9.00;88.20
63219;DHT22;49320;52.512;13.448;2024-03-25T05:19:02;9.00;88.20
63219;DHT22;49320;52.512;13.448;2024-03-25T05:21:30;9.10;88.80
63219;DHT22;49320;52.512;13.448;2024-03-25T05:23:56;9.00;88.20
63219;DHT22;49320;52.512;13.448;2024-03-25T05:26:22;8.40;88.00
63219;DHT22;49320;52.512;13.448;2024-03-25T05:28:55;9.10;88.40
63219;DHT22;49320;52.512;13.448;2024-03-25T05:31:22;9.10;88.60
63219;DHT22;49320;52.512;13.448;2024-03-25T05:33:49;9.10;88.30
63219;DHT22;49320;52.512;13.448;2024-03-25T05:36:15;9.10;88.30
63219;DHT22;49320;52.512;13.448;2024-03-25T05:38:42;8.90;88.10
63219;DHT22;49320;52.512;13.448;2024-03-25T05:41:08;9.10;88.10
63219;DHT22;49320;52.512;13.448;2024-03-25T05:43:35;9.10;88.10
63219;DHT22;49320;52.512;13.448;2024-03-25T05:46:01;9.10;87.80
63219;DHT22;49320;52.512;13.448;2024-03-25T05:51:12;9.10;87.20
63219;DHT22;49320;52.512;13.448;2024-03-25T05:53:38;9.10;88.50
63219;DHT22;49320;52.512;13.448;2024-03-25T05:56:04;8.80;87.70
63219;DHT22;49320;52.512;13.448;2024-03-25T05:58:30;9.10;88.20
63219;DHT22;49320;52.512;13.448;2024-03-25T06:00:56;9.20;88.50
63219;DHT22;49320;52.512;13.448;2024-03-25T06:03:22;9.20;88.50
63219;DHT22;49320;52.512;13.448;2024-03-25T06:05:48;9.20;88.40
63219;DHT22;49320;52.512;13.448;2024-03-25T06:08:14;9.20;88.40
63219;DHT22;49320;52.512;13.448;2024-03-25T06:11:00;9.20;88.30
63219;DHT22;49320;52.512;13.448;2024-03-25T06:13:27;9.20;88.40
63219;DHT22;49320;52.512;13.448;2024-03-25T06:15:53;9.30;88.30
63219;DHT22;49320;52.512;13.448;2024-03-25T06:18:19;9.20;88.20
63219;DHT22;49320;52.512;13.448;2024-03-25T06:20:45;9.20;88.30
63219;DHT22;49320;52.512;13.448;2024-03-25T06:23:11;9.30;88.60
63219;DHT22;49320;52.512;13.448;2024-03-25T06:25:51;9.30;88.40
63219;DHT22;49320;52.512;13.448;2024-03-25T06:28:19;9.30;88.30
63219;DHT22;49320;52.512;13.448;2024-03-25T06:30:46;9.40;88.40
63219;DHT22;49320;52.512;13.448;2024-03-25T06:33:31;9.30;88.50
63219;DHT22;49320;52.512;13.448;2024-03-25T06:36:16;9.30;88.30
63219;DHT22;49320;52.512;13.448;2024-03-25T06:38:44;9.40;88.20
63219;DHT22;49320;52.512;13.448;2024-03-25T06:41:10;9.40;88.10
63219;DHT22;49320;52.512;13.448;2024-03-25T06:43:36;9.40;88.00
63219;DHT22;49320;52.512;13.448;2024-03-25T06:46:06;9.40;88.00
63219;DHT22;49320;52.512;13.448;2024-03-25T06:48:33;9.30;88.00
63219;DHT22;49320;52.512;13.448;2024-03-25T06:51:00;9.50;88.10
63219;DHT22;49320;52.512;13.448;2024-03-25T06:53:28;9.50;87.70
63219;DHT22;49320;52.512;13.448;2024-03-25T06:55:58;9.30;88.00
63219;DHT22;49320;52.512;13.448;2024-03-25T06:58:26;9.50;88.20
63219;DHT22;49320;52.512;13.448;2024-03-25T07:00:54;9.50;87.90
63219;DHT22;49320;52.512;13.448;2024-03-25T07:03:22;9.50;87.60
63219;DHT22;49320;52.512;13.448;2024-03-25T07:05:50;9.50;87.70
63219;DHT22;49320;52.512;13.448;2024-03-25T07:08:21;9.50;87.80
63219;DHT22;49320;52.512;13.448;2024-03-25T07:10:47;9.50;87.90
63219;DHT22;49320;52.512;13.448;2024-03-25T07:13:13;9.50;87.70
63219;DHT22;49320;52.512;13.448;2024-03-25T07:15:39;9.50;87.50
63219;DHT22;49320;52.512;13.448;2024-03-25T07:18:06;9.50;87.70
63219;DHT22;49320;52.512;13.448;2024-03-25T07:20:32;9.50;87.80
63219;DHT22;49320;52.512;13.448;2024-03-25T07:22:58;9.50;87.40
63219;DHT22;49320;52.512;13.448;2024-03-25T07:25:24;9.50;88.00
63219;DHT22;49320;52.512;13.448;2024-03-25T07:27:51;9.50;88.00
63219;DHT22;49320;52.512;13.448;2024-03-25T07:30:18;9.50;87.70
63219;DHT22;49320;52.512;13.448;2024-03-25T07:32:44;9.50;87.70
63219;DHT22;49320;52.512;13.448;2024-03-25T07:35:13;9.50;87.60
63219;DHT22;49320;52.512;13.448;2024-03-25T07:37:43;9.50;87.90
63219;DHT22;49320;52.512;13.448;2024-03-25T07:40:09;9.40;87.40
63219;DHT22;49320;52.512;13.448;2024-03-25T07:42:38;9.50;87.80
63219;DHT22;49320;52.512;13.448;2024-03-25T07:45:06;9.50;88.10
63219;DHT22;49320;52.512;13.448;2024-03-25T07:47:32;9.50;87.80
63219;DHT22;49320;52.512;13.448;2024-03-25T07:49:59;9.50;87.70
63219;DHT22;49320;52.512;13.448;2024-03-25T07:52:25;9.50;87.80
63219;DHT22;49320;52.512;13.448;2024-03-25T07:54:53;9.60;88.30
63219;DHT22;49320;52.512;13.448;2024-03-25T07:57:19;9.60;88.20
63219;DHT22;49320;52.512;13.448;2024-03-25T07:59:45;8.60;87.30
63219;DHT22;49320;52.512;13.448;2024-03-25T08:02:11;9.40;87.70
63219;DHT22;49320;52.512;13.448;2024-03-25T08:04:37;9.60;87.10
63219;DHT22;49320;52.512;13.448;2024-03-25T08:07:03;9.60;87.20
63219;DHT22;49320;52.512;13.448;2024-03-25T08:09:29;9.80;86.80
63219;DHT22;49320;52.512;13.448;2024-03-25T08:11:55;9.60;87.00
63219;DHT22;49320;52.512;13.448;2024-03-25T08:14:21;9.60;87.20
63219;DHT22;49320;52.512;13.448;2024-03-25T08:16:47;9.40;87.20
63219;DHT22;49320;52.512;13.448;2024-03-25T08:19:13;9.60;87.10
63219;DHT22;49320;52.512;13.448;2024-03-25T08:21:39;9.50;87.10
63219;DHT22;49320;52.512;13.448;2024-03-25T08:24:05;9.60;87.20
63219;DHT22;49320;52.512;13.448;2024-03-25T08:26:31;9.60;87.40
63219;DHT22;49320;52.512;13.448;2024-03-25T08:28:57;9.70;87.40
63219;DHT22;49320;52.512;13.448;2024-03-25T08:31:23;9.60;87.80
63219;DHT22;49320;52.512;13.448;2024-03-25T08:33:49;9.70;88.10
63219;DHT22;49320;52.512;13.448;2024-03-25T08:36:16;9.80;88.20
63219;DHT22;49320;52.512;13.448;2024-03-25T08:38:42;9.80;88.00
63219;DHT22;49320;52.512;13.448;2024-03-25T08:41:08;10.00;87.10
63219;DHT22;49320;52.512;13.448;2024-03-25T08:43:34;9.80;87.20
63219;DHT22;49320;52.512;13.448;2024-03-25T08:46:00;10.00;87.20
63219;DHT22;49320;52.512;13.448;2024-03-25T08:48:26;10.00;87.20
63219;DHT22;49320;52.512;13.448;2024-03-25T08:50:52;10.10;87.30
63219;DHT22;49320;52.512;13.448;2024-03-25T08:53:18;10.10;86.90
63219;DHT22;49320;52.512;13.448;2024-03-25T08:55:47;10.20;86.80
63219;DHT22;49320;52.512;13.448;2024-03-25T08:58:14;10.20;86.80
63219;DHT22;49320;52.512;13.448;2024-03-25T09:00:44;10.20;86.70
63219;DHT22;49320;52.512;13.448;2024-03-25T09:03:10;10.30;85.10
63219;DHT22;49320;52.512;13.448;2024-03-25T09:08:06;10.30;85.20
63219;DHT22;49320;52.512;13.448;2024-03-25T09:10:32;10.30;85.40
63219;DHT22;49320;52.512;13.448;2024-03-25T09:13:16;10.30;86.20
63219;DHT22;49320;52.512;13.448;2024-03-25T09:15:42;10.40;86.40
63219;DHT22;49320;52.512;13.448;2024-03-25T09:18:08;10.40;86.00
63219;DHT22;49320;52.512;13.448;2024-03-25T09:20:34;10.50;85.70
63219;DHT22;49320;52.512;13.448;2024-03-25T09:23:00;10.50;85.40
63219;DHT22;49320;52.512;13.448;2024-03-25T09:25:26;10.50;85.20
63219;DHT22;49320;52.512;13.448;2024-03-25T09:30:18;10.60;84.70
63219;DHT22;49320;52.512;13.448;2024-03-25T09:32:44;10.60;85.20
63219;DHT22;49320;52.512;13.448;2024-03-25T09:35:11;10.40;84.80
63219;DHT22;49320;52.512;13.448;2024-03-25T09:37:37;10.60;84.50
63219;DHT22;49320;52.512;13.448;2024-03-25T09:40:04;10.70;84.90
63219;DHT22;49320;52.512;13.448;2024-03-25T09:42:42;10.70;83.80
63219;DHT22;49320;52.512;13.448;2024-03-25T09:45:13;10.70;82.90
63219;DHT22;49320;52.512;13.448;2024-03-25T09:47:46;10.70;82.50
63219;DHT22;49320;52.512;13.448;2024-03-25T09:50:13;10.70;82.30
63219;DHT22;49320;52.512;13.448;2024-03-25T09:52:46;10.70;82.50
63219;DHT22;49320;52.512;13.448;2024-03-25T09:55:12;10.70;83.20
63219;DHT22;49320;52.512;13.448;2024-03-25T10:00:08;10.70;81.90
63219;DHT22;49320;52.512;13.448;2024-03-25T10:02:39;10.70;81.80
63219;DHT22;49320;52.512;13.448;2024-03-25T10:05:07;10.70;83.20
63219;DHT22;49320;52.512;13.448;2024-03-25T10:07:34;10.80;83.30
63219;DHT22;49320;52.512;13.448;2024-03-25T10:10:06;10.80;83.50
63219;DHT22;49320;52.512;13.448;2024-03-25T10:12:33;11.00;82.70
63219;DHT22;49320;52.512;13.448;2024-03-25T10:15:01;11.10;83.50
63219;DHT22;49320;52.512;13.448;2024-03-25T10:17:27;11.20;83.10
63219;DHT22;49320;52.512;13.448;2024-03-25T10:19:55;11.30;82.70
63219;DHT22;49320;52.512;13.448;2024-03-25T10:22:21;11.40;82.10
63219;DHT22;49320;52.512;13.448;2024-03-25T10:24:47;11.50;82.60
63219;DHT22;49320;52.512;13.448;2024-03-25T10:27:21;11.70;82.50
63219;DHT22;49320;52.512;13.448;2024-03-25T10:29:53;11.80;81.00
63219;DHT22;49320;52.512;13.448;2024-03-25T10:32:23;11.90;80.60
63219;DHT22;49320;52.512;13.448;2024-03-25T10:34:50;12.00;80.60
63219;DHT22;49320;52.512;13.448;2024-03-25T10:37:17;11.20;79.60
63219;DHT22;49320;52.512;13.448;2024-03-25T10:39:50;12.20;78.70
63219;DHT22;49320;52.512;13.448;2024-03-25T10:42:20;12.20;77.00
63219;DHT22;49320;52.512;13.448;2024-03-25T10:44:47;12.30;77.40
63219;DHT22;49320;52.512;13.448;2024-03-25T10:47:23;12.20;74.20
63219;DHT22;49320;52.512;13.448;2024-03-25T10:49:56;12.30;74.00
63219;DHT22;49320;52.512;13.448;2024-03-25T10:52:27;12.30;73.80
63219;DHT22;49320;52.512;13.448;2024-03-25T10:54:56;12.30;73.70
63219;DHT22;49320;52.512;13.448;2024-03-25T10:57:23;12.30;74.10
63219;DHT22;49320;52.512;13.448;2024-03-25T10:59:49;12.30;73.40
63219;DHT22;49320;52.512;13.448;2024-03-25T11:02:17;12.40;72.50
63219;DHT22;49320;52.512;13.448;2024-03-25T11:04:44;12.30;73.00
63219;DHT22;49320;52.512;13.448;2024-03-25T11:07:15;12.40;73.10
63219;DHT22;49320;52.512;13.448;2024-03-25T11:09:42;12.40;72.70
63219;DHT22;49320;52.512;13.448;2024-03-25T11:12:11;12.50;73.30
63219;DHT22;49320;52.512;13.448;2024-03-25T11:14:39;12.50;72.80
63219;DHT22;49320;52.512;13.448;2024-03-25T11:17:15;12.60;72.10
63219;DHT22;49320;52.512;13.448;2024-03-25T11:19:41;12.70;70.90
63219;DHT22;49320;52.512;13.448;2024-03-25T11:22:09;12.70;71.80
63219;DHT22;49320;52.512;13.448;2024-03-25T11:24:37;12.80;72.00
63219;DHT22;49320;52.512;13.448;2024-03-25T11:27:06;12.80;72.20
63219;DHT22;49320;52.512;13.448;2024-03-25T11:29:33;13.00;71.60
63219;DHT22;49320;52.512;13.448;2024-03-25T11:32:03;13.10;70.60
63219;DHT22;49320;52.512;13.448;2024-03-25T11:34:30;13.20;70.10
63219;DHT22;49320;52.512;13.448;2024-03-25T11:36:56;13.20;68.00
63219;DHT22;49320;52.512;13.448;2024-03-25T11:39:24;13.40;68.70
63219;DHT22;49320;52.512;13.448;2024-03-25T11:41:54;13.40;67.30
63219;DHT22;49320;52.512;13.448;2024-03-25T11:44:21;13.40;66.90
63219;DHT22;49320;52.512;13.448;2024-03-25T11:46:51;13.40;65.90
63219;DHT22;49320;52.512;13.448;2024-03-25T11:49:21;13.40;65.60
63219;DHT22;49320;52.512;13.448;2024-03-25T11:51:47;13.30;66.00
63219;DHT22;49320;52.512;13.448;2024-03-25T11:54:13;13.30;67.20
63219;DHT22;49320;52.512;13.448;2024-03-25T11:56:39;13.20;65.70
63219;DHT22;49320;52.512;13.448;2024-03-25T11:59:06;13.30;66.30
63219;DHT22;49320;52.512;13.448;2024-03-25T12:01:33;13.30;66.00
63219;DHT22;49320;52.512;13.448;2024-03-25T12:04:10;13.30;64.70
63219;DHT22;49320;52.512;13.448;2024-03-25T12:06:36;13.30;65.10
63219;DHT22;49320;52.512;13.448;2024-03-25T12:09:02;13.10;65.50
63219;DHT22;49320;52.512;13.448;2024-03-25T12:11:46;13.30;65.50
63219;DHT22;49320;52.512;13.448;2024-03-25T12:14:13;13.30;66.30
63219;DHT22;49320;52.512;13.448;2024-03-25T12:16:40;13.30;66.40
63219;DHT22;49320;52.512;13.448;2024-03-25T12:19:06;13.40;65.40
63219;DHT22;49320;52.512;13.448;2024-03-25T12:21:32;13.40;65.60
63219;DHT22;49320;52.512;13.448;2024-03-25T12:23:59;13.50;65.50
63219;DHT22;49320;52.512;13.448;2024-03-25T12:26:25;13.50;65.10
63219;DHT22;49320;52.512;13.448;2024-03-25T12:28:52;13.50;65.50
63219;DHT22;49320;52.512;13.448;2024-03-25T12:31:18;13.60;66.10
63219;DHT22;49320;52.512;13.448;2024-03-25T12:33:44;13.70;65.60
63219;DHT22;49320;52.512;13.448;2024-03-25T12:36:13;13.60;64.40
63219;DHT22;49320;52.512;13.448;2024-03-25T12:38:39;13.70;63.90
63219;DHT22;49320;52.512;13.448;2024-03-25T12:41:10;13.60;64.20
63219;DHT22;49320;52.512;13.448;2024-03-25T12:43:42;13.60;64.60
63219;DHT22;49320;52.512;13.448;2024-03-25T12:46:10;13.60;61.40
63219;DHT22;49320;52.512;13.448;2024-03-25T12:48:37;13.60;64.40
63219;DHT22;49320;52.512;13.448;2024-03-25T12:51:04;13.60;64.80
63219;DHT22;49320;52.512;13.448;2024-03-25T12:53:30;13.50;64.60
63219;DHT22;49320;52.512;13.448;2024-03-25T12:55:56;13.60;64.30
63219;DHT22;49320;52.512;13.448;2024-03-25T12:58:22;13.60;64.50
63219;DHT22;49320;52.512;13.448;2024-03-25T13:00:49;13.60;63.40
63219;DHT22;49320;52.512;13.448;2024-03-25T13:03:15;13.60;61.70
63219;DHT22;49320;52.512;13.448;2024-03-25T13:05:43;13.40;63.70
63219;DHT22;49320;52.512;13.448;2024-03-25T13:08:10;13.50;62.60
63219;DHT22;49320;52.512;13.448;2024-03-25T13:10:36;13.50;63.30
63219;DHT22;49320;52.512;13.448;2024-03-25T13:13:02;13.50;62.60
63219;DHT22;49320;52.512;13.448;2024-03-25T13:15:28;13.40;62.80
63219;DHT22;49320;52.512;13.448;2024-03-25T13:17:54;13.40;61.50
63219;DHT22;49320;52.512;13.448;2024-03-25T13:20:20;13.30;60.20
63219;DHT22;49320;52.512;13.448;2024-03-25T13:22:46;13.40;62.00
63219;DHT22;49320;52.512;13.448;2024-03-25T13:25:13;13.40;62.60
63219;DHT22;49320;52.512;13.448;2024-03-25T13:27:39;13.50;63.00
63219;DHT22;49320;52.512;13.448;2024-03-25T13:30:06;13.50;63.20
63219;DHT22;49320;52.512;13.448;2024-03-25T13:32:32;13.60;62.80
63219;DHT22;49320;52.512;13.448;2024-03-25T13:34:59;13.70;62.50
63219;DHT22;49320;52.512;13.448;2024-03-25T13:37:27;13.50;61.60
63219;DHT22;49320;52.512;13.448;2024-03-25T13:39:52;13.80;62.40
63219;DHT22;49320;52.512;13.448;2024-03-25T13:42:18;13.80;62.30
63219;DHT22;49320;52.512;13.448;2024-03-25T13:44:44;13.80;61.40
63219;DHT22;49320;52.512;13.448;2024-03-25T13:47:10;13.90;62.40
63219;DHT22;49320;52.512;13.448;2024-03-25T13:49:36;14.00;61.80
63219;DHT22;49320;52.512;13.448;2024-03-25T13:52:03;14.00;60.50
63219;DHT22;49320;52.512;13.448;2024-03-25T13:54:30;14.10;60.60
63219;DHT22;49320;52.512;13.448;2024-03-25T13:56:59;14.10;60.40
63219;DHT22;49320;52.512;13.448;2024-03-25T13:59:25;14.10;59.50
63219;DHT22;49320;52.512;13.448;2024-03-25T14:01:51;14.30;59.40
63219;DHT22;49320;52.512;13.448;2024-03-25T14:04:19;14.20;58.90
63219;DHT22;49320;52.512;13.448;2024-03-25T14:06:46;14.20;59.60
63219;DHT22;49320;52.512;13.448;2024-03-25T14:09:27;14.20;59.90
63219;DHT22;49320;52.512;13.448;2024-03-25T14:11:53;14.20;58.80
63219;DHT22;49320;52.512;13.448;2024-03-25T14:14:19;14.20;59.70
63219;DHT22;49320;52.512;13.448;2024-03-25T14:16:45;14.20;59.00
63219;DHT22;49320;52.512;13.448;2024-03-25T14:19:11;14.30;59.20
63219;DHT22;49320;52.512;13.448;2024-03-25T14:21:37;14.20;59.40
63219;DHT22;49320;52.512;13.448;2024-03-25T14:24:05;14.20;59.40
63219;DHT22;49320;52.512;13.448;2024-03-25T14:26:31;14.20;59.10
63219;DHT22;49320;52.512;13.448;2024-03-25T14:28:58;14.20;59.50
63219;DHT22;49320;52.512;13.448;2024-03-25T14:31:25;14.10;59.10
63219;DHT22;49320;52.512;13.448;2024-03-25T14:33:52;14.30;59.60
63219;DHT22;49320;52.512;13.448;2024-03-25T14:36:17;14.30;59.40
63219;DHT22;49320;52.512;13.448;2024-03-25T14:38:43;14.40;59.10
63219;DHT22;49320;52.512;13.448;2024-03-25T14:41:12;14.20;59.20
63219;DHT22;49320;52.512;13.448;2024-03-25T14:46:05;14.30;58.70
63219;DHT22;49320;52.512;13.448;2024-03-25T14:48:31;14.40;59.20
63219;DHT22;49320;52.512;13.448;2024-03-25T14:50:57;14.30;59.30
63219;DHT22;49320;52.512;13.448;2024-03-25T14:53:22;14.30;59.60
63219;DHT22;49320;52.512;13.448;2024-03-25T14:55:48;14.30;59.80
63219;DHT22;49320;52.512;13.448;2024-03-25T14:58:14;14.20;59.70
63219;DHT22;49320;52.512;13.448;2024-03-25T15:00:40;14.20;59.80
63219;DHT22;49320;52.512;13.448;2024-03-25T15:03:06;14.20;58.90
63219;DHT22;49320;52.512;13.448;2024-03-25T15:05:32;14.10;60.10
63219;DHT22;49320;52.512;13.448;2024-03-25T15:07:58;14.10;60.10
63219;DHT22;49320;52.512;13.448;2024-03-25T15:10:25;14.10;60.40
63219;DHT22;49320;52.512;13.448;2024-03-25T15:12:52;14.10;60.60
63219;DHT22;49320;52.512;13.448;2024-03-25T15:15:18;13.40;60.20
63219;DHT22;49320;52.512;13.448;2024-03-25T15:17:44;14.00;59.90
63219;DHT22;49320;52.512;13.448;2024-03-25T15:20:10;14.00;60.70
63219;DHT22;49320;52.512;13.448;2024-03-25T15:22:36;14.10;60.70
63219;DHT22;49320;52.512;13.448;2024-03-25T15:25:04;14.10;60.90
63219;DHT22;49320;52.512;13.448;2024-03-25T15:27:31;14.10;60.70
63219;DHT22;49320;52.512;13.448;2024-03-25T15:29:56;14.00;60.00
63219;DHT22;49320;52.512;13.448;2024-03-25T15:32:23;14.10;60.40
63219;DHT22;49320;52.512;13.448;2024-03-25T15:34:49;14.10;60.10
63219;DHT22;49320;52.512;13.448;2024-03-25T15:37:14;14.10;60.00
63219;DHT22;49320;52.512;13.448;2024-03-25T15:39:41;14.00;59.70
63219;DHT22;49320;52.512;13.448;2024-03-25T15:42:07;13.90;59.80
63219;DHT22;49320;52.512;13.448;2024-03-25T15:44:33;13.70;60.20